Time;durP1;ratioP1;P1;durP2;ratioP2;P2;SDS_P1;SDS_P2;PMS_P1;PMS_P2;Temp;Humidity;BMP_temperature;BMP_pressure;BME280_temperature;BME280_humidity;BME280_pressure;Samples;Min_cycle;Max_cycle;Signal;HPM_P1;HPM_P2
2024/02/26 00:00:53;;;;;;;1.40;1.30;;;;;6.30;98984.00;;;;10368473;28;20261;-81
2024/02/26 00:05:56;;;;;;;3.77;1.27;;;;;6.30;98990.00;;;;10386971;28;20210;-80
2024/02/26 00:10:57;;;;;;;3.53;1.70;;;;;6.20;98971.00;;;;10392631;28;20254;-80
2024/02/26 00:15:58;;;;;;;1.23;1.13;;;;;6.20;98969.00;;;;10408202;28;20596;-80
2024/02/26 00:21:00;;;;;;;1.47;1.30;;;;;6.20;98963.00;;;;10397724;28;20308;-80
2024/02/26 00:26:03;;;;;;;3.23;1.60;;;;;6.20;98950.00;;;;10348399;28;20269;-80
2024/02/26 00:31:05;;;;;;;3.13;1.40;;;;;6.20;98952.00;;;;10389275;28;20225;-80
2024/02/26 00:36:06;;;;;;;3.43;1.60;;;;;6.10;98948.00;;;;10383463;28;20293;-81
2024/02/26 00:41:07;;;;;;;1.97;1.37;;;;;6.10;98948.00;;;;10383574;28;20947;-81
2024/02/26 00:46:08;;;;;;;1.97;1.20;;;;;6.10;98948.00;;;;10431231;28;20240;-81
2024/02/26 00:51:10;;;;;;;2.40;1.37;;;;;6.10;98950.00;;;;10411252;28;20227;-80
2024/02/26 00:56:11;;;;;;;1.73;1.60;;;;;6.00;98958.00;;;;10383839;28;20288;-81
2024/02/26 01:01:12;;;;;;;4.20;1.40;;;;;6.00;98948.00;;;;10433993;28;20256;-81
2024/02/26 01:06:13;;;;;;;3.10;1.70;;;;;6.00;98949.00;;;;10400610;28;20225;-81
2024/02/26 01:11:15;;;;;;;2.40;1.30;;;;;6.00;98948.00;;;;10398995;28;20251;-81
2024/02/26 01:16:16;;;;;;;1.60;1.43;;;;;5.90;98952.00;;;;10394686;28;20234;-81
2024/02/26 01:21:17;;;;;;;3.40;1.63;;;;;5.90;98944.00;;;;10403798;28;20304;-81
2024/02/26 01:26:18;;;;;;;2.73;1.47;;;;;5.90;98938.00;;;;10386646;28;20228;-80
2024/02/26 01:31:20;;;;;;;2.67;1.40;;;;;5.90;98934.00;;;;10400656;28;20210;-80
2024/02/26 01:36:21;;;;;;;3.57;1.40;;;;;5.90;98934.00;;;;10380022;28;20230;-81
2024/02/26 01:41:22;;;;;;;4.23;1.53;;;;;5.90;98932.00;;;;10396620;28;20228;-80
2024/02/26 01:46:23;;;;;;;2.03;1.53;;;;;5.90;98933.00;;;;10427472;28;20304;-80
2024/02/26 01:51:24;;;;;;;3.57;1.40;;;;;5.80;98941.00;;;;10412160;28;20856;-81
2024/02/26 01:56:30;;;;;;;1.67;1.27;;;;;5.90;98945.00;;;;10399297;28;20305;-79
2024/02/26 02:01:32;;;;;;;2.43;1.20;;;;;5.90;98947.00;;;;10419725;28;20222;-81
2024/02/26 02:06:35;;;;;;;1.10;1.00;;;;;5.90;98958.00;;;;10385599;28;20218;-80
2024/02/26 02:11:37;;;;;;;2.57;1.33;;;;;5.90;98958.00;;;;10402596;28;20764;-81
2024/02/26 02:16:38;;;;;;;4.83;1.60;;;;;5.90;98958.00;;;;10416529;28;20234;-80
2024/02/26 02:21:40;;;;;;;2.03;1.30;;;;;5.90;98954.00;;;;10415096;28;20903;-80
2024/02/26 02:26:41;;;;;;;4.17;1.73;;;;;5.80;98947.00;;;;10407759;28;20218;-80
2024/02/26 02:31:43;;;;;;;2.77;1.20;;;;;5.80;98957.00;;;;10436859;28;20225;-81
2024/02/26 02:36:54;;;;;;;1.63;1.10;;;;;5.80;98954.00;;;;10403921;28;20224;-81
2024/02/26 02:41:55;;;;;;;1.93;1.27;;;;;5.80;98958.00;;;;10404488;28;20233;-81
2024/02/26 02:46:56;;;;;;;2.37;1.57;;;;;5.80;98974.00;;;;10442857;28;20713;-83
2024/02/26 02:51:57;;;;;;;1.53;1.30;;;;;5.80;98962.00;;;;10416268;28;20218;-83
2024/02/26 02:56:58;;;;;;;2.87;1.60;;;;;5.70;98963.00;;;;10419496;28;20241;-83
2024/02/26 03:02:00;;;;;;;4.07;1.80;;;;;5.70;98951.00;;;;10426540;28;20218;-84
2024/02/26 03:07:01;;;;;;;3.23;1.50;;;;;5.70;98955.00;;;;10429252;28;20215;-83
2024/02/26 03:12:03;;;;;;;2.87;1.80;;;;;5.70;98962.00;;;;10429324;28;21095;-82
2024/02/26 03:17:04;;;;;;;3.73;1.73;;;;;5.70;98975.00;;;;10431453;28;20305;-82
2024/02/26 03:22:05;;;;;;;1.83;1.70;;;;;5.70;98980.00;;;;10410157;28;20225;-82
2024/02/26 03:27:09;;;;;;;2.93;1.63;;;;;5.70;98968.00;;;;10422958;28;20308;-82
2024/02/26 03:32:10;;;;;;;1.90;1.40;;;;;5.70;98975.00;;;;10398359;28;20214;-81
2024/02/26 03:37:12;;;;;;;2.60;2.23;;;;;5.70;98976.00;;;;10412736;28;20744;-82
2024/02/26 03:42:13;;;;;;;4.00;2.67;;;;;5.70;98969.00;;;;10405660;28;20240;-81
2024/02/26 03:47:14;;;;;;;6.57;2.40;;;;;5.70;98979.00;;;;10428120;28;20229;-82
2024/02/26 03:52:15;;;;;;;4.47;3.20;;;;;5.60;98979.00;;;;10433579;28;20233;-82
2024/02/26 03:57:16;;;;;;;4.80;3.93;;;;;5.60;98989.00;;;;10428904;28;20232;-77
2024/02/26 04:02:19;;;;;;;5.40;4.20;;;;;5.60;98993.00;;;;10418432;28;20221;-77
2024/02/26 04:07:20;;;;;;;4.33;3.93;;;;;5.60;99005.00;;;;10429386;28;20305;-76
2024/02/26 04:12:21;;;;;;;5.07;4.57;;;;;5.50;99011.00;;;;10425748;28;20218;-78
2024/02/26 04:17:23;;;;;;;4.80;4.37;;;;;5.60;98996.00;;;;10409262;28;20259;-77
2024/02/26 04:22:25;;;;;;;5.83;5.33;;;;;5.50;99008.00;;;;10405773;28;20222;-77
2024/02/26 04:27:26;;;;;;;6.13;5.00;;;;;5.50;99027.00;;;;10437213;28;20261;-76
2024/02/26 04:32:27;;;;;;;5.87;5.27;;;;;5.50;99024.00;;;;10440743;28;20233;-77
2024/02/26 04:37:30;;;;;;;6.47;5.77;;;;;5.50;99032.00;;;;10437236;28;20713;-77
2024/02/26 04:42:31;;;;;;;9.83;6.97;;;;;5.50;99035.00;;;;10424527;28;20279;-79
2024/02/26 04:47:32;;;;;;;10.43;6.20;;;;;5.50;99048.00;;;;10428723;28;20312;-76
2024/02/26 04:52:34;;;;;;;7.83;7.00;;;;;5.50;99042.00;;;;10401200;28;20309;-76
2024/02/26 04:57:35;;;;;;;10.37;7.97;;;;;5.50;99053.00;;;;10415101;28;20218;-76
2024/02/26 05:02:38;;;;;;;8.17;7.33;;;;;5.50;99068.00;;;;10404203;28;20279;-77
2024/02/26 05:07:41;;;;;;;9.53;8.37;;;;;5.50;99070.00;;;;10423195;28;20246;-79
2024/02/26 05:12:42;;;;;;;15.63;10.67;;;;;5.50;99074.00;;;;10428417;28;20261;-79
2024/02/26 05:17:45;;;;;;;14.50;12.27;;;;;5.60;99086.00;;;;10427530;28;20223;-78
2024/02/26 05:22:47;;;;;;;17.40;12.40;;;;;5.60;99083.00;;;;10433379;28;20225;-78
2024/02/26 05:27:49;;;;;;;16.73;12.97;;;;;5.60;99074.00;;;;10413541;28;20304;-78
2024/02/26 05:32:50;;;;;;;18.73;14.10;;;;;5.60;99085.00;;;;10431524;28;20308;-79
2024/02/26 05:37:51;;;;;;;15.43;12.20;;;;;5.60;99095.00;;;;10423221;28;20293;-79
2024/02/26 05:42:52;;;;;;;16.47;14.20;;;;;5.60;99088.00;;;;10442813;28;20344;-78
2024/02/26 05:47:53;;;;;;;15.57;13.60;;;;;5.60;99094.00;;;;10404774;28;20253;-79
2024/02/26 05:52:54;;;;;;;15.43;13.80;;;;;5.60;99103.00;;;;10421759;28;20233;-78
2024/02/26 05:57:56;;;;;;;16.10;13.43;;;;;5.60;99104.00;;;;10407731;28;20233;-79
2024/02/26 06:02:57;;;;;;;13.27;11.87;;;;;5.60;99123.00;;;;10401823;28;20233;-78
2024/02/26 06:07:59;;;;;;;15.20;12.07;;;;;5.60;99128.00;;;;10416231;28;20225;-79
2024/02/26 06:13:00;;;;;;;14.77;12.37;;;;;5.60;99133.00;;;;10431109;28;20219;-80
2024/02/26 06:18:01;;;;;;;15.30;12.93;;;;;5.60;99145.00;;;;10400306;28;20667;-76
2024/02/26 06:23:03;;;;;;;16.67;12.57;;;;;5.60;99149.00;;;;10401156;28;20220;-76
2024/02/26 06:28:04;;;;;;;14.63;12.93;;;;;5.50;99154.00;;;;10417527;28;20821;-78
2024/02/26 06:33:05;;;;;;;16.10;13.47;;;;;5.50;99172.00;;;;10439080;28;20300;-77
2024/02/26 06:38:07;;;;;;;15.73;14.13;;;;;5.50;99169.00;;;;10418425;28;20317;-76
2024/02/26 06:43:09;;;;;;;15.53;13.90;;;;;5.50;99181.00;;;;10401149;28;20218;-76
2024/02/26 06:48:10;;;;;;;17.00;15.20;;;;;5.50;99189.00;;;;10421357;28;20733;-78
2024/02/26 06:53:11;;;;;;;15.97;14.33;;;;;5.50;99204.00;;;;10401510;28;20240;-78
2024/02/26 06:58:13;;;;;;;17.80;14.93;;;;;5.50;99226.00;;;;10387405;28;20288;-77
2024/02/26 07:03:15;;;;;;;17.23;15.07;;;;;5.50;99217.00;;;;10408890;28;20305;-77
2024/02/26 07:08:16;;;;;;;17.10;15.37;;;;;5.50;99228.00;;;;10432922;28;20823;-76
2024/02/26 07:13:17;;;;;;;18.50;15.77;;;;;5.50;99236.00;;;;10434951;28;20934;-77
2024/02/26 07:18:18;;;;;;;17.13;13.97;;;;;5.50;99249.00;;;;10394680;28;20308;-78
2024/02/26 07:23:20;;;;;;;15.93;14.43;;;;;5.50;99261.00;;;;10423090;28;20871;-78
2024/02/26 07:28:21;;;;;;;16.50;14.53;;;;;5.50;99264.00;;;;10414539;28;20221;-79
2024/02/26 07:33:22;;;;;;;20.00;15.77;;;;;5.50;99282.00;;;;10377596;28;20741;-79
2024/02/26 07:38:24;;;;;;;17.93;14.97;;;;;5.60;99278.00;;;;10407545;28;20226;-79
2024/02/26 07:43:42;;;;;;;15.53;14.03;;;;;5.60;99289.00;;;;10411220;28;20329;-78
2024/02/26 07:48:43;;;;;;;16.23;13.80;;;;;5.60;99291.00;;;;10402193;28;20222;-78
2024/02/26 07:53:45;;;;;;;16.10;14.07;;;;;5.60;99306.00;;;;10404314;28;20222;-79
2024/02/26 07:58:46;;;;;;;15.73;14.13;;;;;5.60;99299.00;;;;10426228;28;20690;-79
2024/02/26 08:03:47;;;;;;;16.27;14.37;;;;;5.60;99317.00;;;;10397908;28;20225;-78
2024/02/26 08:08:48;;;;;;;15.43;13.83;;;;;5.70;99332.00;;;;10415742;28;20254;-80
2024/02/26 08:13:50;;;;;;;16.27;14.57;;;;;5.80;99333.00;;;;10412195;28;20312;-79
2024/02/26 08:18:51;;;;;;;14.53;13.13;;;;;5.80;99337.00;;;;10407201;28;20308;-79
2024/02/26 08:23:52;;;;;;;15.03;13.53;;;;;5.80;99347.00;;;;10400690;28;20713;-79
2024/02/26 08:28:55;;;;;;;14.87;13.47;;;;;5.80;99356.00;;;;10393103;28;20257;-78
2024/02/26 08:33:58;;;;;;;14.23;12.70;;;;;5.90;99365.00;;;;10423726;28;20218;-79
2024/02/26 08:38:59;;;;;;;15.27;12.87;;;;;5.90;99372.00;;;;10382227;28;20261;-80
2024/02/26 08:44:01;;;;;;;13.23;11.60;;;;;6.00;99380.00;;;;10394703;28;20218;-76
2024/02/26 08:49:02;;;;;;;14.93;13.43;;;;;6.00;99391.00;;;;10413157;28;20252;-76
2024/02/26 08:54:04;;;;;;;13.57;12.17;;;;;6.00;99403.00;;;;10442746;28;20352;-77
2024/02/26 08:59:05;;;;;;;13.87;12.57;;;;;5.90;99406.00;;;;10420508;28;20297;-76
2024/02/26 09:04:06;;;;;;;12.33;11.03;;;;;5.90;99401.00;;;;10394967;28;21000;-75
2024/02/26 09:09:10;;;;;;;13.10;11.47;;;;;5.80;99423.00;;;;10405606;28;20791;-78
2024/02/26 09:14:12;;;;;;;13.33;11.93;;;;;5.80;99418.00;;;;10425680;28;20218;-77
2024/02/26 09:19:15;;;;;;;14.47;12.97;;;;;5.80;99432.00;;;;10441545;28;20320;-79
2024/02/26 09:24:16;;;;;;;14.07;12.50;;;;;5.80;99438.00;;;;10421861;28;20249;-76
2024/02/26 09:29:17;;;;;;;13.70;11.53;;;;;5.80;99439.00;;;;10423133;28;20228;-77
2024/02/26 09:34:18;;;;;;;13.63;12.23;;;;;5.90;99454.00;;;;10424958;28;20313;-77
2024/02/26 09:39:21;;;;;;;13.80;11.73;;;;;5.90;99462.00;;;;10406226;28;20229;-76
2024/02/26 09:44:24;;;;;;;14.07;11.77;;;;;5.90;99470.00;;;;10438891;28;20924;-79
2024/02/26 09:49:25;;;;;;;13.50;11.73;;;;;5.90;99481.00;;;;10433262;28;20309;-82
2024/02/26 09:54:28;;;;;;;12.37;11.17;;;;;5.90;99493.00;;;;10444017;28;20214;-81
2024/02/26 09:59:38;;;;;;;13.17;11.87;;;;;5.80;99497.00;;;;10426096;28;20248;-82
2024/02/26 10:04:43;;;;;;;13.57;12.17;;;;;5.80;99499.00;;;;10400007;28;20246;-82
2024/02/26 10:09:50;;;;;;;13.67;11.07;;;;;5.90;99521.00;;;;10388325;28;20222;-82
2024/02/26 10:14:51;;;;;;;11.77;10.40;;;;;5.90;99524.00;;;;10404397;28;20217;-82
2024/02/26 10:19:56;;;;;;;12.30;11.00;;;;;5.90;99534.00;;;;10426876;28;20218;-82
2024/02/26 10:24:57;;;;;;;11.67;10.57;;;;;5.90;99548.00;;;;10405214;28;20828;-81
2024/02/26 10:30:02;;;;;;;11.70;10.60;;;;;5.90;99557.00;;;;10433362;28;20664;-81
2024/02/26 10:35:08;;;;;;;10.70;8.87;;;;;5.90;99566.00;;;;10442155;28;20222;-81
2024/02/26 10:40:14;;;;;;;9.07;7.73;;;;;5.90;99579.00;;;;10425433;28;20222;-82
2024/02/26 10:45:15;;;;;;;9.27;7.50;;;;;6.00;99588.00;;;;10396702;28;20846;-81
2024/02/26 10:50:18;;;;;;;7.80;7.03;;;;;6.20;99597.00;;;;10419058;28;20222;-82
2024/02/26 10:55:22;;;;;;;6.90;6.20;;;;;6.20;99609.00;;;;10387098;28;20234;-80
2024/02/26 11:00:24;;;;;;;6.43;5.83;;;;;6.00;99624.00;;;;10418124;28;20222;-76
2024/02/26 11:05:25;;;;;;;6.00;5.50;;;;;5.90;99617.00;;;;10402163;28;20224;-76
2024/02/26 11:10:30;;;;;;;6.17;5.10;;;;;6.00;99616.00;;;;10417591;28;20262;-77
2024/02/26 11:15:33;;;;;;;5.30;4.80;;;;;5.90;99629.00;;;;10419236;28;20250;-77
2024/02/26 11:20:38;;;;;;;7.00;4.47;;;;;5.90;99643.00;;;;10386243;28;20634;-76
2024/02/26 11:25:39;;;;;;;5.60;5.00;;;;;5.90;99645.00;;;;10374879;28;20626;-76
2024/02/26 11:30:45;;;;;;;5.43;4.93;;;;;5.90;99659.00;;;;10403664;28;20987;-77
2024/02/26 11:35:47;;;;;;;4.57;4.17;;;;;5.90;99656.00;;;;10392687;28;20229;-75
2024/02/26 11:40:49;;;;;;;5.60;4.90;;;;;5.80;99657.00;;;;10423407;28;20320;-76
2024/02/26 11:45:52;;;;;;;5.70;5.20;;;;;5.80;99658.00;;;;10439413;28;20258;-75
2024/02/26 11:50:55;;;;;;;5.67;5.17;;;;;5.80;99660.00;;;;10427834;28;20297;-77
2024/02/26 11:56:22;;;;;;;6.10;5.60;;;;;5.70;99661.00;;;;10383724;28;20309;-77
2024/02/26 12:01:49;;;;;;;6.17;5.57;;;;;5.80;99668.00;;;;10403596;28;20251;-76
2024/02/26 12:06:54;;;;;;;6.00;5.50;;;;;5.80;99688.00;;;;10417090;28;20253;-79
2024/02/26 12:11:56;;;;;;;5.97;5.47;;;;;5.80;99689.00;;;;10410815;28;20238;-79
2024/02/26 12:16:58;;;;;;;6.00;5.40;;;;;5.80;99708.00;;;;10401154;28;20223;-79
2024/02/26 12:21:59;;;;;;;6.40;5.53;;;;;5.80;99708.00;;;;10433048;28;20290;-79
2024/02/26 12:27:01;;;;;;;5.80;5.20;;;;;5.90;99716.00;;;;10417085;28;20270;-79
2024/02/26 12:32:04;;;;;;;5.97;5.33;;;;;5.70;99722.00;;;;10429935;28;20296;-80
2024/02/26 12:37:10;;;;;;;6.30;5.70;;;;;5.90;99731.00;;;;10435352;28;20225;-79
2024/02/26 12:42:11;;;;;;;5.47;4.80;;;;;6.00;99744.00;;;;10397576;28;20264;-79
2024/02/26 12:47:16;;;;;;;5.50;5.00;;;;;5.90;99751.00;;;;10395388;28;20271;-79
2024/02/26 12:52:17;;;;;;;6.17;5.57;;;;;5.90;99751.00;;;;10420416;28;20226;-79
2024/02/26 12:57:19;;;;;;;5.87;5.30;;;;;5.90;99770.00;;;;10404535;28;20283;-78
2024/02/26 13:02:20;;;;;;;6.50;5.87;;;;;6.00;99775.00;;;;10394330;28;20217;-78
2024/02/26 13:07:22;;;;;;;7.67;6.33;;;;;6.00;99797.00;;;;10377770;28;20222;-79
2024/02/26 13:12:23;;;;;;;7.20;6.50;;;;;6.00;99798.00;;;;10394060;28;20227;-79
2024/02/26 13:17:27;;;;;;;7.40;6.17;;;;;6.00;99806.00;;;;10376174;28;20249;-77
2024/02/26 13:22:33;;;;;;;8.60;7.73;;;;;6.00;99813.00;;;;10382215;28;20245;-76
2024/02/26 13:27:34;;;;;;;8.03;7.23;;;;;6.00;99812.00;;;;10393389;28;20246;-77
2024/02/26 13:32:37;;;;;;;8.97;8.07;;;;;6.00;99826.00;;;;10410075;28;20223;-76
2024/02/26 13:37:39;;;;;;;9.17;8.20;;;;;6.10;99843.00;;;;10353736;28;20245;-77
2024/02/26 13:42:40;;;;;;;8.83;7.97;;;;;6.00;99843.00;;;;10354277;28;20351;-76
2024/02/26 13:47:42;;;;;;;10.57;8.87;;;;;5.90;99853.00;;;;10394026;28;20306;-77
2024/02/26 13:52:43;;;;;;;11.40;10.20;;;;;5.90;99857.00;;;;10376983;28;20236;-78
2024/02/26 13:57:44;;;;;;;9.73;8.53;;;;;5.80;99860.00;;;;10372670;28;20222;-77
2024/02/26 14:02:45;;;;;;;9.37;8.37;;;;;5.80;99863.00;;;;10379987;28;20221;-76
2024/02/26 14:07:46;;;;;;;10.03;8.80;;;;;5.90;99876.00;;;;10408235;28;20791;-77
2024/02/26 14:12:52;;;;;;;11.30;9.17;;;;;5.90;99880.00;;;;10378846;28;20280;-78
2024/02/26 14:17:56;;;;;;;10.77;9.00;;;;;5.90;99892.00;;;;10360040;28;20766;-77
2024/02/26 14:22:57;;;;;;;11.80;9.47;;;;;6.10;99902.00;;;;10357999;28;20230;-77
2024/02/26 14:27:58;;;;;;;10.80;9.60;;;;;6.10;99903.00;;;;10360499;28;20211;-82
2024/02/26 14:32:59;;;;;;;13.43;10.23;;;;;6.10;99914.00;;;;10397844;28;20705;-82
2024/02/26 14:38:01;;;;;;;12.13;9.97;;;;;6.10;99920.00;;;;10386931;28;20229;-81
2024/02/26 14:43:04;;;;;;;12.30;9.83;;;;;6.10;99931.00;;;;10402543;28;20631;-81
2024/02/26 14:48:06;;;;;;;12.13;9.20;;;;;6.10;99935.00;;;;10390609;28;20698;-82
2024/02/26 14:53:07;;;;;;;11.17;9.30;;;;;6.10;99941.00;;;;10378796;28;20760;-80
2024/02/26 14:58:11;;;;;;;11.43;9.00;;;;;6.10;99944.00;;;;10394722;28;20253;-80
2024/02/26 15:03:12;;;;;;;11.47;9.40;;;;;6.00;99956.00;;;;10395425;28;20680;-80
2024/02/26 15:08:16;;;;;;;11.13;8.53;;;;;6.00;99968.00;;;;10398812;28;20222;-81
2024/02/26 15:13:17;;;;;;;10.80;7.77;;;;;5.90;99979.00;;;;10361278;28;20226;-82
2024/02/26 15:18:18;;;;;;;9.87;7.80;;;;;5.90;99987.00;;;;10365975;28;20667;-81
2024/02/26 15:23:20;;;;;;;10.03;7.13;;;;;5.90;99988.00;;;;10390719;28;20226;-82
2024/02/26 15:28:21;;;;;;;8.97;7.23;;;;;5.90;99991.00;;;;10396550;28;20876;-81
2024/02/26 15:33:24;;;;;;;7.57;6.33;;;;;5.90;100007.00;;;;10393446;28;20225;-81
2024/02/26 15:38:27;;;;;;;9.20;6.63;;;;;5.80;100026.00;;;;10379961;28;20306;-77
2024/02/26 15:43:28;;;;;;;6.60;5.90;;;;;5.80;100026.00;;;;10381815;28;20613;-77
2024/02/26 15:48:30;;;;;;;7.80;6.60;;;;;5.80;100033.00;;;;10395975;28;20265;-78
2024/02/26 15:53:32;;;;;;;8.07;6.63;;;;;5.80;100043.00;;;;10375205;28;20277;-76
2024/02/26 15:58:33;;;;;;;8.60;6.70;;;;;5.80;100045.00;;;;10380365;28;20219;-78
2024/02/26 16:03:38;;;;;;;6.87;5.63;;;;;5.80;100059.00;;;;10389301;28;20314;-77
2024/02/26 16:08:40;;;;;;;8.60;5.83;;;;;5.80;100077.00;;;;10396012;28;20222;-77
2024/02/26 16:13:41;;;;;;;8.27;6.40;;;;;5.70;100078.00;;;;10386884;28;20262;-78
2024/02/26 16:18:43;;;;;;;6.47;5.80;;;;;5.70;100093.00;;;;10380774;28;20264;-78
2024/02/26 16:23:44;;;;;;;6.57;5.57;;;;;5.70;100096.00;;;;10378677;28;20226;-79
2024/02/26 16:28:45;;;;;;;7.67;6.17;;;;;5.60;100115.00;;;;10358000;28;20249;-77
2024/02/26 16:33:47;;;;;;;8.03;6.70;;;;;5.60;100120.00;;;;10372751;28;20774;-78
2024/02/26 16:38:48;;;;;;;7.63;6.03;;;;;5.50;100118.00;;;;10372812;28;20249;-77
2024/02/26 16:43:50;;;;;;;7.80;6.77;;;;;5.50;100132.00;;;;10370464;28;20309;-77
2024/02/26 16:48:52;;;;;;;8.60;6.90;;;;;5.50;100147.00;;;;10374484;28;20841;-75
2024/02/26 16:53:53;;;;;;;8.27;6.53;;;;;5.40;100155.00;;;;10398266;28;20213;-77
2024/02/26 16:58:54;;;;;;;10.33;7.93;;;;;5.40;100175.00;;;;10391363;28;20219;-76
2024/02/26 17:03:56;;;;;;;10.23;8.60;;;;;5.40;100183.00;;;;10378215;28;20213;-78
2024/02/26 17:08:57;;;;;;;11.57;9.00;;;;;5.40;100200.00;;;;10378768;28;20219;-77
2024/02/26 17:14:02;;;;;;;10.83;8.40;;;;;5.40;100202.00;;;;10372672;28;20234;-78
2024/02/26 17:19:03;;;;;;;10.03;8.30;;;;;5.40;100224.00;;;;10379991;28;20246;-78
2024/02/26 17:24:05;;;;;;;11.97;10.33;;;;;5.40;100221.00;;;;10384419;28;20218;-76
2024/02/26 17:29:06;;;;;;;13.30;10.10;;;;;5.40;100236.00;;;;10354283;28;20221;-77
2024/02/26 17:34:08;;;;;;;12.57;8.77;;;;;5.30;100255.00;;;;10395300;28;20243;-79
2024/02/26 17:39:10;;;;;;;15.67;10.90;;;;;5.40;100255.00;;;;10383127;28;20225;-77
2024/02/26 17:44:11;;;;;;;13.70;10.50;;;;;5.40;100276.00;;;;10399177;28;20234;-78
2024/02/26 17:49:12;;;;;;;15.50;10.90;;;;;5.30;100293.00;;;;10401043;28;20234;-76
2024/02/26 17:54:14;;;;;;;17.67;11.67;;;;;5.30;100285.00;;;;10378914;28;20634;-77
2024/02/26 17:59:15;;;;;;;16.57;11.67;;;;;5.30;100313.00;;;;10380976;28;20297;-82
2024/02/26 18:04:16;;;;;;;14.10;10.57;;;;;5.30;100321.00;;;;10361872;28;20222;-81
2024/02/26 18:09:17;;;;;;;18.37;13.60;;;;;5.30;100343.00;;;;10382954;28;20321;-81
2024/02/26 18:14:18;;;;;;;17.87;13.33;;;;;5.40;100356.00;;;;10399134;28;20230;-81
2024/02/26 18:19:19;;;;;;;19.80;14.33;;;;;5.30;100365.00;;;;10369208;28;20441;-80
2024/02/26 18:24:21;;;;;;;20.47;13.67;;;;;5.30;100369.00;;;;10422435;28;20258;-79
2024/02/26 18:29:22;;;;;;;19.70;13.77;;;;;5.30;100378.00;;;;10428499;28;20225;-81
2024/02/26 18:34:24;;;;;;;18.33;13.67;;;;;5.30;100386.00;;;;10378117;28;20862;-81
2024/02/26 18:39:25;;;;;;;20.47;15.40;;;;;5.30;100410.00;;;;10359603;28;20281;-81
2024/02/26 18:44:27;;;;;;;19.33;13.50;;;;;5.30;100418.00;;;;10387996;28;20245;-81
2024/02/26 18:49:32;;;;;;;18.33;13.10;;;;;5.30;100429.00;;;;10363031;28;20218;-82
2024/02/26 18:54:33;;;;;;;19.27;14.83;;;;;5.30;100432.00;;;;10363775;28;20250;-82
2024/02/26 18:59:39;;;;;;;17.33;11.87;;;;;5.20;100435.00;;;;10390467;28;20223;-81
2024/02/26 19:04:40;;;;;;;15.77;12.00;;;;;5.20;100455.00;;;;10393435;28;20603;-81
2024/02/26 19:09:42;;;;;;;16.57;12.77;;;;;5.20;100453.00;;;;10364841;28;20664;-76
2024/02/26 19:14:44;;;;;;;16.53;11.93;;;;;5.20;100470.00;;;;10379012;28;20230;-79
2024/02/26 19:19:45;;;;;;;17.47;12.17;;;;;5.20;100493.00;;;;10397782;28;20253;-77
2024/02/26 19:24:46;;;;;;;16.93;12.50;;;;;5.20;100495.00;;;;10380136;28;20214;-77
2024/02/26 19:29:47;;;;;;;18.17;12.53;;;;;5.20;100507.00;;;;10378404;28;20872;-77
2024/02/26 19:34:48;;;;;;;17.67;12.40;;;;;5.20;100517.00;;;;10412779;28;20226;-76
2024/02/26 19:39:50;;;;;;;18.80;13.17;;;;;5.20;100520.00;;;;10397261;28;20225;-76
2024/02/26 19:44:51;;;;;;;17.00;11.97;;;;;5.20;100520.00;;;;10397285;28;20297;-76
2024/02/26 19:49:55;;;;;;;15.80;12.07;;;;;5.20;100531.00;;;;10397849;28;20219;-77
2024/02/26 19:54:56;;;;;;;17.87;13.23;;;;;5.20;100535.00;;;;10395695;28;20794;-77
2024/02/26 19:59:57;;;;;;;19.83;14.17;;;;;5.20;100546.00;;;;10383345;28;20806;-77
2024/02/26 20:04:58;;;;;;;18.23;13.23;;;;;5.10;100560.00;;;;10362285;28;20301;-77
2024/02/26 20:10:00;;;;;;;20.27;14.57;;;;;5.10;100575.00;;;;10354626;28;20353;-76
2024/02/26 20:15:01;;;;;;;18.47;13.33;;;;;5.10;100590.00;;;;10361354;28;20237;-77
2024/02/26 20:20:03;;;;;;;20.93;13.73;;;;;5.10;100595.00;;;;10352073;28;20890;-78
2024/02/26 20:25:05;;;;;;;21.43;14.43;;;;;5.10;100594.00;;;;10374399;28;20827;-79
2024/02/26 20:30:06;;;;;;;21.40;13.87;;;;;5.10;100611.00;;;;10377445;28;20244;-79
2024/02/26 20:35:09;;;;;;;22.63;15.00;;;;;5.10;100617.00;;;;10372377;28;20233;-79
2024/02/26 20:40:11;;;;;;;19.57;14.20;;;;;5.00;100631.00;;;;10372770;28;20223;-79
2024/02/26 20:45:13;;;;;;;19.33;13.27;;;;;5.00;100637.00;;;;10345785;28;20245;-79
2024/02/26 20:50:14;;;;;;;23.80;15.53;;;;;5.00;100644.00;;;;10374753;28;20248;-79
2024/02/26 20:55:15;;;;;;;22.97;15.07;;;;;5.00;100663.00;;;;10364025;28;20237;-78
2024/02/26 21:00:17;;;;;;;21.27;14.63;;;;;4.90;100674.00;;;;10350864;28;20262;-80
2024/02/26 21:05:18;;;;;;;25.10;15.03;;;;;4.90;100678.00;;;;10346680;28;20246;-79
2024/02/26 21:10:23;;;;;;;27.10;15.70;;;;;4.90;100685.00;;;;10347005;28;20233;-79
2024/02/26 21:15:26;;;;;;;21.90;16.53;;;;;4.90;100689.00;;;;10346659;28;20219;-79
2024/02/26 21:20:31;;;;;;;23.27;16.60;;;;;4.80;100704.00;;;;10376591;28;20234;-78
2024/02/26 21:25:32;;;;;;;22.13;15.67;;;;;4.80;100707.00;;;;10370721;28;20310;-78
2024/02/26 21:30:33;;;;;;;20.67;14.70;;;;;4.80;100716.00;;;;10395208;28;20278;-78
2024/02/26 21:35:34;;;;;;;24.00;16.20;;;;;4.70;100722.00;;;;10417771;28;20627;-82
2024/02/26 21:40:36;;;;;;;23.13;15.60;;;;;4.70;100729.00;;;;10368318;28;20704;-83
2024/02/26 21:45:39;;;;;;;25.00;16.33;;;;;4.70;100732.00;;;;10390159;28;20222;-79
2024/02/26 21:50:41;;;;;;;22.00;16.50;;;;;4.60;100747.00;;;;10380169;28;20223;-79
2024/02/26 21:55:43;;;;;;;22.27;15.90;;;;;4.60;100759.00;;;;10377817;28;20222;-82
2024/02/26 22:00:45;;;;;;;27.93;16.90;;;;;4.60;100760.00;;;;10385600;28;20332;-79
2024/02/26 22:05:46;;;;;;;23.07;15.90;;;;;4.60;100767.00;;;;10372088;28;20677;-78
2024/02/26 22:10:49;;;;;;;22.77;15.97;;;;;4.60;100779.00;;;;10376877;28;20254;-79
2024/02/26 22:15:51;;;;;;;21.90;14.30;;;;;4.60;100788.00;;;;10371586;28;20228;-79
2024/02/26 22:20:52;;;;;;;24.40;15.50;;;;;4.60;100790.00;;;;10374808;28;20784;-80
2024/02/26 22:25:53;;;;;;;21.90;14.57;;;;;4.60;100794.00;;;;10401066;28;20313;-78
2024/02/26 22:30:54;;;;;;;22.53;16.10;;;;;4.60;100799.00;;;;10360890;28;20691;-79
2024/02/26 22:35:55;;;;;;;21.83;15.17;;;;;4.60;100806.00;;;;10376500;28;20249;-79
2024/02/26 22:40:57;;;;;;;21.50;15.20;;;;;4.60;100817.00;;;;10395203;28;20238;-79
2024/02/26 22:45:58;;;;;;;21.33;14.43;;;;;4.60;100825.00;;;;10378131;28;20258;-78
2024/02/26 22:51:01;;;;;;;20.40;14.73;;;;;4.60;100825.00;;;;10363162;28;20305;-80
2024/02/26 22:56:02;;;;;;;20.20;13.80;;;;;4.60;100822.00;;;;10362496;28;20262;-76
2024/02/26 23:01:03;;;;;;;20.67;14.20;;;;;4.60;100822.00;;;;10362272;28;20750;-75
2024/02/26 23:06:05;;;;;;;20.23;14.13;;;;;4.60;100819.00;;;;10373628;28;20229;-76
2024/02/26 23:11:06;;;;;;;24.93;14.27;;;;;4.60;100832.00;;;;10366199;28;20561;-77
2024/02/26 23:16:08;;;;;;;22.20;13.83;;;;;4.60;100830.00;;;;10360159;28;20233;-76
2024/02/26 23:21:10;;;;;;;18.37;13.13;;;;;4.60;100844.00;;;;10379528;28;20587;-75
2024/02/26 23:26:11;;;;;;;21.67;13.53;;;;;4.60;100849.00;;;;10365072;28;20219;-76
2024/02/26 23:31:12;;;;;;;18.70;13.23;;;;;4.60;100849.00;;;;10378594;28;20215;-77
2024/02/26 23:36:13;;;;;;;19.33;13.00;;;;;4.60;100845.00;;;;10363060;28;20288;-76
2024/02/26 23:41:14;;;;;;;24.37;12.87;;;;;4.50;100837.00;;;;10345307;28;20233;-76
2024/02/26 23:46:15;;;;;;;18.97;12.70;;;;;4.60;100844.00;;;;10358544;28;20222;-76
2024/02/26 23:51:16;;;;;;;19.73;13.10;;;;;4.60;100864.00;;;;10362652;28;20226;-76
2024/02/26 23:56:18;;;;;;;16.53;12.50;;;;;4.50;100864.00;;;;10358581;28;20223;-77
